sensor_id;sensor_type;location;lat;lon;timestamp;P1;durP1;ratioP1;P2;durP2;ratioP2
68944;SDS011;55984;48.790;8.990;2023-11-19T00:02:25;7.33;;;3.10;;
68944;SDS011;55984;48.790;8.990;2023-11-19T00:04:51;5.90;;;2.70;;
68944;SDS011;55984;48.790;8.990;2023-11-19T00:07:18;4.10;;;2.40;;
68944;SDS011;55984;48.790;8.990;2023-11-19T00:09:45;4.53;;;3.00;;
68944;SDS011;55984;48.790;8.990;2023-11-19T00:12:10;3.47;;;2.50;;
68944;SDS011;55984;48.790;8.990;2023-11-19T00:14:38;4.57;;;2.37;;
68944;SDS011;55984;48.790;8.990;2023-11-19T00:17:04;3.70;;;2.57;;
68944;SDS011;55984;48.790;8.990;2023-11-19T00:19:30;3.97;;;2.17;;
68944;SDS011;55984;48.790;8.990;2023-11-19T00:21:56;2.43;;;1.90;;
68944;SDS011;55984;48.790;8.990;2023-11-19T00:24:22;2.77;;;1.97;;
68944;SDS011;55984;48.790;8.990;2023-11-19T00:26:48;2.10;;;1.63;;
68944;SDS011;55984;48.790;8.990;2023-11-19T00:29:15;2.30;;;1.80;;
68944;SDS011;55984;48.790;8.990;2023-11-19T00:31:41;2.63;;;1.40;;
68944;SDS011;55984;48.790;8.990;2023-11-19T00:34:07;3.00;;;1.60;;
68944;SDS011;55984;48.790;8.990;2023-11-19T00:36:33;2.00;;;1.50;;
68944;SDS011;55984;48.790;8.990;2023-11-19T00:38:58;1.90;;;1.50;;
68944;SDS011;55984;48.790;8.990;2023-11-19T00:41:24;2.13;;;1.43;;
68944;SDS011;55984;48.790;8.990;2023-11-19T00:43:50;2.00;;;1.30;;
68944;SDS011;55984;48.790;8.990;2023-11-19T00:46:21;1.50;;;1.33;;
68944;SDS011;55984;48.790;8.990;2023-11-19T00:48:47;2.03;;;1.33;;
68944;SDS011;55984;48.790;8.990;2023-11-19T00:51:13;1.83;;;1.40;;
68944;SDS011;55984;48.790;8.990;2023-11-19T00:53:39;1.70;;;1.33;;
68944;SDS011;55984;48.790;8.990;2023-11-19T00:56:05;1.60;;;1.47;;
68944;SDS011;55984;48.790;8.990;2023-11-19T00:58:31;1.80;;;1.50;;
68944;SDS011;55984;48.790;8.990;2023-11-19T01:00:57;2.20;;;1.53;;
68944;SDS011;55984;48.790;8.990;2023-11-19T01:03:24;1.60;;;1.40;;
68944;SDS011;55984;48.790;8.990;2023-11-19T01:05:53;2.30;;;1.50;;
68944;SDS011;55984;48.790;8.990;2023-11-19T01:08:20;1.67;;;1.20;;
68944;SDS011;55984;48.790;8.990;2023-11-19T01:10:46;4.90;;;1.40;;
68944;SDS011;55984;48.790;8.990;2023-11-19T01:13:12;1.70;;;1.40;;
68944;SDS011;55984;48.790;8.990;2023-11-19T01:15:38;2.13;;;1.40;;
68944;SDS011;55984;48.790;8.990;2023-11-19T01:18:06;1.93;;;1.40;;
68944;SDS011;55984;48.790;8.990;2023-11-19T01:20:34;1.50;;;1.10;;
68944;SDS011;55984;48.790;8.990;2023-11-19T01:23:00;1.47;;;1.30;;
68944;SDS011;55984;48.790;8.990;2023-11-19T01:25:26;1.50;;;1.30;;
68944;SDS011;55984;48.790;8.990;2023-11-19T01:27:52;2.23;;;1.30;;
68944;SDS011;55984;48.790;8.990;2023-11-19T01:30:18;2.13;;;1.40;;
68944;SDS011;55984;48.790;8.990;2023-11-19T01:32:44;1.43;;;1.20;;
68944;SDS011;55984;48.790;8.990;2023-11-19T01:35:10;2.13;;;1.30;;
68944;SDS011;55984;48.790;8.990;2023-11-19T01:37:36;1.40;;;1.20;;
68944;SDS011;55984;48.790;8.990;2023-11-19T01:40:02;1.33;;;1.17;;
68944;SDS011;55984;48.790;8.990;2023-11-19T01:42:30;1.30;;;1.10;;
68944;SDS011;55984;48.790;8.990;2023-11-19T01:45:01;1.30;;;1.10;;
68944;SDS011;55984;48.790;8.990;2023-11-19T01:47:27;1.80;;;1.20;;
68944;SDS011;55984;48.790;8.990;2023-11-19T01:49:55;2.67;;;1.10;;
68944;SDS011;55984;48.790;8.990;2023-11-19T01:52:23;2.93;;;1.10;;
68944;SDS011;55984;48.790;8.990;2023-11-19T01:54:49;1.30;;;1.10;;
68944;SDS011;55984;48.790;8.990;2023-11-19T01:57:21;1.50;;;1.40;;
68944;SDS011;55984;48.790;8.990;2023-11-19T01:59:49;1.90;;;1.23;;
68944;SDS011;55984;48.790;8.990;2023-11-19T02:02:19;1.40;;;1.10;;
68944;SDS011;55984;48.790;8.990;2023-11-19T02:04:46;1.40;;;1.20;;
68944;SDS011;55984;48.790;8.990;2023-11-19T02:07:13;1.30;;;1.10;;
68944;SDS011;55984;48.790;8.990;2023-11-19T02:09:42;1.93;;;1.20;;
68944;SDS011;55984;48.790;8.990;2023-11-19T02:12:09;1.63;;;1.20;;
68944;SDS011;55984;48.790;8.990;2023-11-19T02:14:37;1.90;;;1.10;;
68944;SDS011;55984;48.790;8.990;2023-11-19T02:17:03;1.70;;;1.30;;
68944;SDS011;55984;48.790;8.990;2023-11-19T02:19:29;1.50;;;1.23;;
68944;SDS011;55984;48.790;8.990;2023-11-19T02:21:55;1.50;;;1.20;;
68944;SDS011;55984;48.790;8.990;2023-11-19T02:24:24;3.43;;;1.40;;
68944;SDS011;55984;48.790;8.990;2023-11-19T02:27:06;1.50;;;1.20;;
68944;SDS011;55984;48.790;8.990;2023-11-19T02:29:36;1.30;;;1.17;;
68944;SDS011;55984;48.790;8.990;2023-11-19T02:32:02;2.07;;;1.10;;
68944;SDS011;55984;48.790;8.990;2023-11-19T02:34:28;1.50;;;1.30;;
68944;SDS011;55984;48.790;8.990;2023-11-19T02:36:54;1.40;;;1.10;;
68944;SDS011;55984;48.790;8.990;2023-11-19T02:39:20;2.67;;;1.20;;
68944;SDS011;55984;48.790;8.990;2023-11-19T02:41:46;1.30;;;1.00;;
68944;SDS011;55984;48.790;8.990;2023-11-19T02:44:12;1.30;;;1.10;;
68944;SDS011;55984;48.790;8.990;2023-11-19T02:46:38;1.30;;;1.10;;
68944;SDS011;55984;48.790;8.990;2023-11-19T02:49:07;1.33;;;1.10;;
68944;SDS011;55984;48.790;8.990;2023-11-19T03:08:10;1.30;;;1.00;;
68944;SDS011;55984;48.790;8.990;2023-11-19T03:10:36;1.47;;;1.20;;
68944;SDS011;55984;48.790;8.990;2023-11-19T03:13:02;4.70;;;1.27;;
68944;SDS011;55984;48.790;8.990;2023-11-19T03:15:28;6.13;;;1.50;;
68944;SDS011;55984;48.790;8.990;2023-11-19T03:17:55;1.40;;;1.00;;
68944;SDS011;55984;48.790;8.990;2023-11-19T03:20:21;1.30;;;1.10;;
68944;SDS011;55984;48.790;8.990;2023-11-19T03:22:48;1.40;;;1.20;;
68944;SDS011;55984;48.790;8.990;2023-11-19T03:25:17;1.60;;;1.20;;
68944;SDS011;55984;48.790;8.990;2023-11-19T03:27:43;1.30;;;1.20;;
68944;SDS011;55984;48.790;8.990;2023-11-19T03:30:09;1.70;;;1.10;;
68944;SDS011;55984;48.790;8.990;2023-11-19T03:32:36;2.63;;;1.20;;
68944;SDS011;55984;48.790;8.990;2023-11-19T03:35:07;1.70;;;1.20;;
68944;SDS011;55984;48.790;8.990;2023-11-19T03:37:39;1.30;;;1.10;;
68944;SDS011;55984;48.790;8.990;2023-11-19T03:40:05;1.30;;;1.20;;
68944;SDS011;55984;48.790;8.990;2023-11-19T03:42:35;1.83;;;1.20;;
68944;SDS011;55984;48.790;8.990;2023-11-19T03:45:01;2.43;;;1.20;;
68944;SDS011;55984;48.790;8.990;2023-11-19T03:47:29;1.30;;;1.17;;
68944;SDS011;55984;48.790;8.990;2023-11-19T03:49:55;1.40;;;1.13;;
68944;SDS011;55984;48.790;8.990;2023-11-19T03:52:21;1.30;;;1.13;;
68944;SDS011;55984;48.790;8.990;2023-11-19T03:54:46;1.30;;;1.00;;
68944;SDS011;55984;48.790;8.990;2023-11-19T03:57:12;1.30;;;1.00;;
68944;SDS011;55984;48.790;8.990;2023-11-19T03:59:38;1.57;;;1.10;;
68944;SDS011;55984;48.790;8.990;2023-11-19T04:02:05;1.50;;;1.33;;
68944;SDS011;55984;48.790;8.990;2023-11-19T04:04:31;1.50;;;1.20;;
68944;SDS011;55984;48.790;8.990;2023-11-19T04:06:57;1.30;;;1.00;;
68944;SDS011;55984;48.790;8.990;2023-11-19T04:09:25;1.30;;;0.93;;
68944;SDS011;55984;48.790;8.990;2023-11-19T04:11:52;1.30;;;1.10;;
68944;SDS011;55984;48.790;8.990;2023-11-19T04:14:21;1.40;;;1.10;;
68944;SDS011;55984;48.790;8.990;2023-11-19T04:16:47;1.30;;;1.10;;
68944;SDS011;55984;48.790;8.990;2023-11-19T04:19:13;1.40;;;1.10;;
68944;SDS011;55984;48.790;8.990;2023-11-19T04:21:42;1.30;;;1.20;;
68944;SDS011;55984;48.790;8.990;2023-11-19T04:24:08;1.30;;;1.00;;
68944;SDS011;55984;48.790;8.990;2023-11-19T04:26:42;1.30;;;1.10;;
68944;SDS011;55984;48.790;8.990;2023-11-19T04:29:11;1.37;;;1.20;;
68944;SDS011;55984;48.790;8.990;2023-11-19T04:31:38;1.70;;;1.30;;
68944;SDS011;55984;48.790;8.990;2023-11-19T04:34:05;1.30;;;1.00;;
68944;SDS011;55984;48.790;8.990;2023-11-19T04:36:31;1.30;;;1.10;;
68944;SDS011;55984;48.790;8.990;2023-11-19T04:38:58;1.40;;;1.10;;
68944;SDS011;55984;48.790;8.990;2023-11-19T04:41:25;1.30;;;1.10;;
68944;SDS011;55984;48.790;8.990;2023-11-19T04:43:52;1.47;;;1.20;;
68944;SDS011;55984;48.790;8.990;2023-11-19T04:46:19;1.33;;;1.10;;
68944;SDS011;55984;48.790;8.990;2023-11-19T04:48:45;1.30;;;1.03;;
68944;SDS011;55984;48.790;8.990;2023-11-19T04:51:11;1.37;;;1.30;;
68944;SDS011;55984;48.790;8.990;2023-11-19T04:53:37;1.30;;;1.17;;
68944;SDS011;55984;48.790;8.990;2023-11-19T04:56:12;1.30;;;1.00;;
68944;SDS011;55984;48.790;8.990;2023-11-19T04:58:38;1.30;;;1.10;;
68944;SDS011;55984;48.790;8.990;2023-11-19T05:01:04;1.30;;;1.10;;
68944;SDS011;55984;48.790;8.990;2023-11-19T05:03:31;1.40;;;1.10;;
68944;SDS011;55984;48.790;8.990;2023-11-19T05:06:00;1.30;;;1.10;;
68944;SDS011;55984;48.790;8.990;2023-11-19T05:08:31;1.30;;;1.10;;
68944;SDS011;55984;48.790;8.990;2023-11-19T05:10:57;1.40;;;1.10;;
68944;SDS011;55984;48.790;8.990;2023-11-19T05:13:24;1.30;;;1.20;;
68944;SDS011;55984;48.790;8.990;2023-11-19T05:15:51;1.50;;;1.20;;
68944;SDS011;55984;48.790;8.990;2023-11-19T05:18:17;1.40;;;1.10;;
68944;SDS011;55984;48.790;8.990;2023-11-19T05:20:44;1.30;;;1.10;;
68944;SDS011;55984;48.790;8.990;2023-11-19T05:23:11;1.30;;;1.10;;
68944;SDS011;55984;48.790;8.990;2023-11-19T05:25:37;6.70;;;1.10;;
68944;SDS011;55984;48.790;8.990;2023-11-19T05:28:03;1.50;;;1.20;;
68944;SDS011;55984;48.790;8.990;2023-11-19T05:30:28;1.30;;;1.20;;
68944;SDS011;55984;48.790;8.990;2023-11-19T05:32:54;1.40;;;1.10;;
68944;SDS011;55984;48.790;8.990;2023-11-19T05:35:20;1.30;;;1.17;;
68944;SDS011;55984;48.790;8.990;2023-11-19T05:37:46;1.30;;;1.10;;
68944;SDS011;55984;48.790;8.990;2023-11-19T05:40:12;1.30;;;1.13;;
68944;SDS011;55984;48.790;8.990;2023-11-19T05:42:43;3.50;;;2.77;;
68944;SDS011;55984;48.790;8.990;2023-11-19T05:45:10;4.50;;;2.70;;
68944;SDS011;55984;48.790;8.990;2023-11-19T05:47:37;1.73;;;1.40;;
68944;SDS011;55984;48.790;8.990;2023-11-19T05:50:03;1.40;;;1.20;;
68944;SDS011;55984;48.790;8.990;2023-11-19T05:52:31;1.40;;;1.20;;
68944;SDS011;55984;48.790;8.990;2023-11-19T05:55:00;1.50;;;1.20;;
68944;SDS011;55984;48.790;8.990;2023-11-19T05:57:29;1.40;;;1.07;;
68944;SDS011;55984;48.790;8.990;2023-11-19T05:59:55;1.30;;;1.00;;
68944;SDS011;55984;48.790;8.990;2023-11-19T06:02:21;1.70;;;1.20;;
68944;SDS011;55984;48.790;8.990;2023-11-19T06:04:47;1.40;;;1.20;;
68944;SDS011;55984;48.790;8.990;2023-11-19T06:07:13;1.40;;;1.20;;
68944;SDS011;55984;48.790;8.990;2023-11-19T06:09:40;1.40;;;1.20;;
68944;SDS011;55984;48.790;8.990;2023-11-19T06:12:06;1.40;;;1.20;;
68944;SDS011;55984;48.790;8.990;2023-11-19T06:14:32;1.43;;;1.30;;
68944;SDS011;55984;48.790;8.990;2023-11-19T06:16:58;1.50;;;1.10;;
68944;SDS011;55984;48.790;8.990;2023-11-19T06:19:25;1.40;;;1.20;;
68944;SDS011;55984;48.790;8.990;2023-11-19T06:21:50;1.30;;;1.10;;
68944;SDS011;55984;48.790;8.990;2023-11-19T06:24:16;2.43;;;1.10;;
68944;SDS011;55984;48.790;8.990;2023-11-19T06:26:42;1.40;;;1.17;;
68944;SDS011;55984;48.790;8.990;2023-11-19T06:29:08;2.80;;;1.27;;
68944;SDS011;55984;48.790;8.990;2023-11-19T06:31:34;1.30;;;1.10;;
68944;SDS011;55984;48.790;8.990;2023-11-19T06:34:00;1.30;;;1.10;;
68944;SDS011;55984;48.790;8.990;2023-11-19T06:36:26;12.13;;;1.30;;
68944;SDS011;55984;48.790;8.990;2023-11-19T06:38:52;1.47;;;1.20;;
68944;SDS011;55984;48.790;8.990;2023-11-19T06:41:18;1.40;;;1.10;;
68944;SDS011;55984;48.790;8.990;2023-11-19T06:43:44;1.30;;;1.10;;
68944;SDS011;55984;48.790;8.990;2023-11-19T06:46:16;2.53;;;1.20;;
68944;SDS011;55984;48.790;8.990;2023-11-19T07:05:58;1.30;;;1.10;;
68944;SDS011;55984;48.790;8.990;2023-11-19T07:08:24;1.83;;;1.20;;
68944;SDS011;55984;48.790;8.990;2023-11-19T07:10:50;1.37;;;1.30;;
68944;SDS011;55984;48.790;8.990;2023-11-19T07:13:16;4.80;;;1.40;;
68944;SDS011;55984;48.790;8.990;2023-11-19T07:15:42;1.90;;;1.27;;
68944;SDS011;55984;48.790;8.990;2023-11-19T07:18:08;1.40;;;1.20;;
68944;SDS011;55984;48.790;8.990;2023-11-19T07:20:34;1.87;;;1.40;;
68944;SDS011;55984;48.790;8.990;2023-11-19T07:23:00;2.17;;;1.30;;
68944;SDS011;55984;48.790;8.990;2023-11-19T07:25:27;1.50;;;1.20;;
68944;SDS011;55984;48.790;8.990;2023-11-19T07:27:53;1.63;;;1.23;;
68944;SDS011;55984;48.790;8.990;2023-11-19T07:30:19;1.90;;;1.30;;
68944;SDS011;55984;48.790;8.990;2023-11-19T07:32:45;1.90;;;1.30;;
68944;SDS011;55984;48.790;8.990;2023-11-19T07:35:11;1.97;;;1.20;;
68944;SDS011;55984;48.790;8.990;2023-11-19T07:37:37;1.60;;;1.20;;
68944;SDS011;55984;48.790;8.990;2023-11-19T07:40:04;1.83;;;1.50;;
68944;SDS011;55984;48.790;8.990;2023-11-19T07:42:31;1.57;;;1.53;;
68944;SDS011;55984;48.790;8.990;2023-11-19T07:44:56;1.60;;;1.20;;
68944;SDS011;55984;48.790;8.990;2023-11-19T07:47:22;2.07;;;1.40;;
68944;SDS011;55984;48.790;8.990;2023-11-19T07:49:48;1.57;;;1.20;;
68944;SDS011;55984;48.790;8.990;2023-11-19T07:52:15;3.87;;;1.40;;
68944;SDS011;55984;48.790;8.990;2023-11-19T07:54:41;3.73;;;1.57;;
68944;SDS011;55984;48.790;8.990;2023-11-19T07:57:07;1.57;;;1.40;;
68944;SDS011;55984;48.790;8.990;2023-11-19T07:59:33;1.67;;;1.50;;
68944;SDS011;55984;48.790;8.990;2023-11-19T08:01:59;2.13;;;1.47;;
68944;SDS011;55984;48.790;8.990;2023-11-19T08:04:25;1.70;;;1.33;;
68944;SDS011;55984;48.790;8.990;2023-11-19T08:06:51;1.43;;;1.33;;
68944;SDS011;55984;48.790;8.990;2023-11-19T08:09:17;1.97;;;1.50;;
68944;SDS011;55984;48.790;8.990;2023-11-19T08:11:43;1.53;;;1.30;;
68944;SDS011;55984;48.790;8.990;2023-11-19T08:14:09;1.90;;;1.30;;
68944;SDS011;55984;48.790;8.990;2023-11-19T08:16:35;1.60;;;1.30;;
68944;SDS011;55984;48.790;8.990;2023-11-19T08:19:02;1.53;;;1.20;;
68944;SDS011;55984;48.790;8.990;2023-11-19T08:21:31;2.10;;;1.37;;
68944;SDS011;55984;48.790;8.990;2023-11-19T08:23:57;1.70;;;1.30;;
68944;SDS011;55984;48.790;8.990;2023-11-19T08:26:23;1.93;;;1.47;;
68944;SDS011;55984;48.790;8.990;2023-11-19T08:28:49;7.00;;;1.20;;
68944;SDS011;55984;48.790;8.990;2023-11-19T08:31:17;2.43;;;1.50;;
68944;SDS011;55984;48.790;8.990;2023-11-19T08:33:43;2.17;;;1.40;;
68944;SDS011;55984;48.790;8.990;2023-11-19T08:36:14;2.37;;;1.43;;
68944;SDS011;55984;48.790;8.990;2023-11-19T08:38:41;1.73;;;1.30;;
68944;SDS011;55984;48.790;8.990;2023-11-19T08:41:07;1.90;;;1.33;;
68944;SDS011;55984;48.790;8.990;2023-11-19T08:43:33;2.03;;;1.40;;
68944;SDS011;55984;48.790;8.990;2023-11-19T08:45:59;1.63;;;1.20;;
68944;SDS011;55984;48.790;8.990;2023-11-19T08:48:25;1.80;;;1.27;;
68944;SDS011;55984;48.790;8.990;2023-11-19T08:50:51;3.37;;;1.40;;
68944;SDS011;55984;48.790;8.990;2023-11-19T08:53:17;2.60;;;1.40;;
68944;SDS011;55984;48.790;8.990;2023-11-19T08:55:43;1.53;;;1.30;;
68944;SDS011;55984;48.790;8.990;2023-11-19T08:58:09;2.73;;;1.60;;
68944;SDS011;55984;48.790;8.990;2023-11-19T09:00:35;3.20;;;1.30;;
68944;SDS011;55984;48.790;8.990;2023-11-19T09:03:01;3.00;;;1.47;;
68944;SDS011;55984;48.790;8.990;2023-11-19T09:05:29;2.50;;;1.37;;
68944;SDS011;55984;48.790;8.990;2023-11-19T09:07:55;1.50;;;1.30;;
68944;SDS011;55984;48.790;8.990;2023-11-19T09:10:21;7.70;;;1.30;;
68944;SDS011;55984;48.790;8.990;2023-11-19T09:12:47;1.97;;;1.20;;
68944;SDS011;55984;48.790;8.990;2023-11-19T09:15:13;4.07;;;1.40;;
68944;SDS011;55984;48.790;8.990;2023-11-19T09:17:39;4.50;;;1.30;;
68944;SDS011;55984;48.790;8.990;2023-11-19T09:20:06;1.70;;;1.30;;
68944;SDS011;55984;48.790;8.990;2023-11-19T09:22:33;2.27;;;1.60;;
68944;SDS011;55984;48.790;8.990;2023-11-19T09:25:00;2.13;;;1.40;;
68944;SDS011;55984;48.790;8.990;2023-11-19T09:27:26;1.80;;;1.43;;
68944;SDS011;55984;48.790;8.990;2023-11-19T09:29:52;1.83;;;1.40;;
68944;SDS011;55984;48.790;8.990;2023-11-19T09:32:22;1.43;;;1.20;;
68944;SDS011;55984;48.790;8.990;2023-11-19T09:34:48;1.60;;;1.30;;
68944;SDS011;55984;48.790;8.990;2023-11-19T09:37:14;2.40;;;1.10;;
68944;SDS011;55984;48.790;8.990;2023-11-19T09:39:40;1.50;;;1.20;;
68944;SDS011;55984;48.790;8.990;2023-11-19T09:42:11;1.70;;;1.30;;
68944;SDS011;55984;48.790;8.990;2023-11-19T09:44:38;2.53;;;1.33;;
68944;SDS011;55984;48.790;8.990;2023-11-19T09:47:05;1.40;;;1.10;;
68944;SDS011;55984;48.790;8.990;2023-11-19T09:49:32;1.50;;;1.20;;
68944;SDS011;55984;48.790;8.990;2023-11-19T09:52:02;2.30;;;1.37;;
68944;SDS011;55984;48.790;8.990;2023-11-19T09:54:28;1.60;;;1.10;;
68944;SDS011;55984;48.790;8.990;2023-11-19T09:56:55;1.73;;;1.20;;
68944;SDS011;55984;48.790;8.990;2023-11-19T09:59:31;1.80;;;1.30;;
68944;SDS011;55984;48.790;8.990;2023-11-19T10:01:58;2.43;;;1.30;;
68944;SDS011;55984;48.790;8.990;2023-11-19T10:04:25;3.10;;;1.30;;
68944;SDS011;55984;48.790;8.990;2023-11-19T10:06:55;1.50;;;1.30;;
68944;SDS011;55984;48.790;8.990;2023-11-19T10:09:22;2.13;;;1.30;;
68944;SDS011;55984;48.790;8.990;2023-11-19T10:11:48;1.73;;;1.20;;
68944;SDS011;55984;48.790;8.990;2023-11-19T10:14:15;2.37;;;1.10;;
68944;SDS011;55984;48.790;8.990;2023-11-19T10:16:44;1.30;;;1.10;;
68944;SDS011;55984;48.790;8.990;2023-11-19T10:19:12;2.03;;;1.10;;
68944;SDS011;55984;48.790;8.990;2023-11-19T10:21:45;1.50;;;1.10;;
68944;SDS011;55984;48.790;8.990;2023-11-19T10:24:12;1.60;;;1.23;;
68944;SDS011;55984;48.790;8.990;2023-11-19T10:26:38;3.40;;;1.40;;
68944;SDS011;55984;48.790;8.990;2023-11-19T10:29:07;1.67;;;1.27;;
68944;SDS011;55984;48.790;8.990;2023-11-19T10:31:33;1.30;;;1.07;;
68944;SDS011;55984;48.790;8.990;2023-11-19T10:33:59;1.33;;;1.10;;
68944;SDS011;55984;48.790;8.990;2023-11-19T10:36:38;1.63;;;1.10;;
68944;SDS011;55984;48.790;8.990;2023-11-19T10:39:08;3.10;;;1.30;;
68944;SDS011;55984;48.790;8.990;2023-11-19T10:41:34;2.40;;;1.30;;
68944;SDS011;55984;48.790;8.990;2023-11-19T10:44:01;1.77;;;1.30;;
68944;SDS011;55984;48.790;8.990;2023-11-19T10:46:36;1.60;;;1.20;;
68944;SDS011;55984;48.790;8.990;2023-11-19T10:49:07;1.93;;;1.40;;
68944;SDS011;55984;48.790;8.990;2023-11-19T10:51:34;2.63;;;1.20;;
68944;SDS011;55984;48.790;8.990;2023-11-19T10:54:03;2.53;;;1.10;;
68944;SDS011;55984;48.790;8.990;2023-11-19T10:56:33;1.83;;;1.20;;
68944;SDS011;55984;48.790;8.990;2023-11-19T10:59:00;2.00;;;1.20;;
68944;SDS011;55984;48.790;8.990;2023-11-19T11:21:22;1.70;;;1.30;;
68944;SDS011;55984;48.790;8.990;2023-11-19T11:26:53;1.30;;;1.10;;
68944;SDS011;55984;48.790;8.990;2023-11-19T11:37:47;1.43;;;1.30;;
68944;SDS011;55984;48.790;8.990;2023-11-19T11:40:17;2.13;;;1.40;;
68944;SDS011;55984;48.790;8.990;2023-11-19T11:42:46;1.70;;;1.30;;
68944;SDS011;55984;48.790;8.990;2023-11-19T11:45:15;1.83;;;1.20;;
68944;SDS011;55984;48.790;8.990;2023-11-19T11:50:17;4.80;;;1.43;;
68944;SDS011;55984;48.790;8.990;2023-11-19T11:55:36;1.80;;;1.40;;
68944;SDS011;55984;48.790;8.990;2023-11-19T11:58:17;3.13;;;1.40;;
68944;SDS011;55984;48.790;8.990;2023-11-19T12:00:43;1.93;;;1.20;;
68944;SDS011;55984;48.790;8.990;2023-11-19T12:03:13;3.93;;;1.30;;
68944;SDS011;55984;48.790;8.990;2023-11-19T12:05:43;6.93;;;1.77;;
68944;SDS011;55984;48.790;8.990;2023-11-19T12:08:11;1.50;;;1.30;;
68944;SDS011;55984;48.790;8.990;2023-11-19T12:13:10;1.57;;;1.30;;
68944;SDS011;55984;48.790;8.990;2023-11-19T12:18:30;3.60;;;1.27;;
68944;SDS011;55984;48.790;8.990;2023-11-19T12:20:57;2.23;;;1.30;;
68944;SDS011;55984;48.790;8.990;2023-11-19T12:23:30;4.03;;;1.20;;
68944;SDS011;55984;48.790;8.990;2023-11-19T12:25:58;1.70;;;1.30;;
68944;SDS011;55984;48.790;8.990;2023-11-19T12:28:24;1.40;;;1.10;;
68944;SDS011;55984;48.790;8.990;2023-11-19T12:30:52;1.83;;;1.20;;
68944;SDS011;55984;48.790;8.990;2023-11-19T12:33:19;2.33;;;1.30;;
68944;SDS011;55984;48.790;8.990;2023-11-19T12:35:45;1.53;;;1.20;;
68944;SDS011;55984;48.790;8.990;2023-11-19T12:38:22;2.17;;;1.47;;
68944;SDS011;55984;48.790;8.990;2023-11-19T12:41:03;3.33;;;1.20;;
68944;SDS011;55984;48.790;8.990;2023-11-19T12:43:32;2.10;;;1.20;;
68944;SDS011;55984;48.790;8.990;2023-11-19T12:46:00;1.80;;;1.17;;
68944;SDS011;55984;48.790;8.990;2023-11-19T12:48:26;1.87;;;1.10;;
68944;SDS011;55984;48.790;8.990;2023-11-19T12:50:56;10.40;;;1.40;;
68944;SDS011;55984;48.790;8.990;2023-11-19T12:53:24;1.63;;;1.37;;
68944;SDS011;55984;48.790;8.990;2023-11-19T12:55:51;2.20;;;1.40;;
68944;SDS011;55984;48.790;8.990;2023-11-19T12:58:28;2.43;;;1.47;;
68944;SDS011;55984;48.790;8.990;2023-11-19T13:01:02;1.60;;;1.10;;
68944;SDS011;55984;48.790;8.990;2023-11-19T13:03:34;2.50;;;1.40;;
68944;SDS011;55984;48.790;8.990;2023-11-19T13:06:04;2.33;;;1.13;;
68944;SDS011;55984;48.790;8.990;2023-11-19T13:08:39;1.77;;;1.20;;
68944;SDS011;55984;48.790;8.990;2023-11-19T13:11:08;1.60;;;1.10;;
68944;SDS011;55984;48.790;8.990;2023-11-19T13:16:23;3.43;;;1.30;;
68944;SDS011;55984;48.790;8.990;2023-11-19T13:18:50;1.30;;;1.10;;
68944;SDS011;55984;48.790;8.990;2023-11-19T13:21:16;1.70;;;1.23;;
68944;SDS011;55984;48.790;8.990;2023-11-19T13:23:43;1.87;;;1.30;;
68944;SDS011;55984;48.790;8.990;2023-11-19T13:26:09;1.40;;;1.10;;
68944;SDS011;55984;48.790;8.990;2023-11-19T13:28:36;1.70;;;1.10;;
68944;SDS011;55984;48.790;8.990;2023-11-19T13:31:03;1.60;;;1.10;;
68944;SDS011;55984;48.790;8.990;2023-11-19T13:33:29;1.80;;;1.30;;
68944;SDS011;55984;48.790;8.990;2023-11-19T13:35:55;1.50;;;1.23;;
68944;SDS011;55984;48.790;8.990;2023-11-19T13:38:22;1.70;;;1.30;;
68944;SDS011;55984;48.790;8.990;2023-11-19T13:40:50;1.60;;;1.20;;
68944;SDS011;55984;48.790;8.990;2023-11-19T13:43:16;1.87;;;1.23;;
68944;SDS011;55984;48.790;8.990;2023-11-19T13:45:42;4.10;;;1.20;;
68944;SDS011;55984;48.790;8.990;2023-11-19T13:48:08;2.37;;;1.20;;
68944;SDS011;55984;48.790;8.990;2023-11-19T13:50:34;1.83;;;1.20;;
68944;SDS011;55984;48.790;8.990;2023-11-19T13:53:01;2.70;;;2.00;;
68944;SDS011;55984;48.790;8.990;2023-11-19T13:55:27;1.30;;;1.10;;
68944;SDS011;55984;48.790;8.990;2023-11-19T13:57:55;1.30;;;1.00;;
68944;SDS011;55984;48.790;8.990;2023-11-19T14:00:21;1.60;;;1.20;;
68944;SDS011;55984;48.790;8.990;2023-11-19T14:02:49;2.17;;;1.30;;
68944;SDS011;55984;48.790;8.990;2023-11-19T14:05:15;1.70;;;1.23;;
68944;SDS011;55984;48.790;8.990;2023-11-19T14:07:42;1.60;;;1.20;;
68944;SDS011;55984;48.790;8.990;2023-11-19T14:10:11;1.40;;;1.23;;
68944;SDS011;55984;48.790;8.990;2023-11-19T14:12:37;2.83;;;1.30;;
68944;SDS011;55984;48.790;8.990;2023-11-19T14:15:04;1.40;;;1.20;;
68944;SDS011;55984;48.790;8.990;2023-11-19T14:17:34;1.50;;;1.20;;
68944;SDS011;55984;48.790;8.990;2023-11-19T14:20:01;2.47;;;1.30;;
68944;SDS011;55984;48.790;8.990;2023-11-19T14:22:37;1.70;;;1.10;;
68944;SDS011;55984;48.790;8.990;2023-11-19T14:25:04;1.40;;;1.20;;
68944;SDS011;55984;48.790;8.990;2023-11-19T14:27:33;1.50;;;1.30;;
68944;SDS011;55984;48.790;8.990;2023-11-19T14:29:59;1.70;;;1.30;;
68944;SDS011;55984;48.790;8.990;2023-11-19T14:32:25;1.60;;;1.20;;
68944;SDS011;55984;48.790;8.990;2023-11-19T14:34:51;1.73;;;1.10;;
68944;SDS011;55984;48.790;8.990;2023-11-19T14:37:17;3.30;;;1.83;;
68944;SDS011;55984;48.790;8.990;2023-11-19T14:39:43;3.93;;;1.40;;
68944;SDS011;55984;48.790;8.990;2023-11-19T14:42:09;1.83;;;1.40;;
68944;SDS011;55984;48.790;8.990;2023-11-19T14:44:35;1.50;;;1.20;;
68944;SDS011;55984;48.790;8.990;2023-11-19T14:47:01;1.60;;;1.20;;
68944;SDS011;55984;48.790;8.990;2023-11-19T14:49:27;1.63;;;1.40;;
68944;SDS011;55984;48.790;8.990;2023-11-19T14:51:53;3.70;;;1.30;;
68944;SDS011;55984;48.790;8.990;2023-11-19T14:54:19;6.30;;;1.33;;
68944;SDS011;55984;48.790;8.990;2023-11-19T14:56:45;1.83;;;1.30;;
68944;SDS011;55984;48.790;8.990;2023-11-19T14:59:11;2.07;;;1.40;;
68944;SDS011;55984;48.790;8.990;2023-11-19T15:01:37;1.40;;;1.30;;
68944;SDS011;55984;48.790;8.990;2023-11-19T15:04:02;1.50;;;1.20;;
68944;SDS011;55984;48.790;8.990;2023-11-19T15:21:12;2.87;;;1.30;;
68944;SDS011;55984;48.790;8.990;2023-11-19T15:23:39;1.87;;;1.40;;
68944;SDS011;55984;48.790;8.990;2023-11-19T15:26:07;1.40;;;1.40;;
68944;SDS011;55984;48.790;8.990;2023-11-19T15:28:35;2.83;;;1.47;;
68944;SDS011;55984;48.790;8.990;2023-11-19T15:31:02;1.47;;;1.20;;
68944;SDS011;55984;48.790;8.990;2023-11-19T15:33:28;1.87;;;1.50;;
68944;SDS011;55984;48.790;8.990;2023-11-19T15:35:54;6.33;;;1.60;;
68944;SDS011;55984;48.790;8.990;2023-11-19T15:38:20;3.47;;;1.47;;
68944;SDS011;55984;48.790;8.990;2023-11-19T15:40:46;2.00;;;1.47;;
68944;SDS011;55984;48.790;8.990;2023-11-19T15:43:12;1.73;;;1.50;;
68944;SDS011;55984;48.790;8.990;2023-11-19T15:45:38;1.67;;;1.47;;
68944;SDS011;55984;48.790;8.990;2023-11-19T15:48:05;2.13;;;1.50;;
68944;SDS011;55984;48.790;8.990;2023-11-19T15:50:31;1.50;;;1.37;;
68944;SDS011;55984;48.790;8.990;2023-11-19T15:52:57;2.73;;;1.50;;
68944;SDS011;55984;48.790;8.990;2023-11-19T15:55:24;5.40;;;1.30;;
68944;SDS011;55984;48.790;8.990;2023-11-19T15:57:50;2.00;;;1.40;;
68944;SDS011;55984;48.790;8.990;2023-11-19T16:00:19;1.80;;;1.50;;
68944;SDS011;55984;48.790;8.990;2023-11-19T16:02:48;1.67;;;1.23;;
68944;SDS011;55984;48.790;8.990;2023-11-19T16:05:15;2.33;;;1.53;;
68944;SDS011;55984;48.790;8.990;2023-11-19T16:07:41;1.93;;;1.40;;
68944;SDS011;55984;48.790;8.990;2023-11-19T16:10:07;2.17;;;1.33;;
68944;SDS011;55984;48.790;8.990;2023-11-19T16:12:36;2.20;;;1.43;;
68944;SDS011;55984;48.790;8.990;2023-11-19T16:15:02;1.70;;;1.50;;
68944;SDS011;55984;48.790;8.990;2023-11-19T16:17:28;9.93;;;1.73;;
68944;SDS011;55984;48.790;8.990;2023-11-19T16:19:55;2.53;;;1.57;;
68944;SDS011;55984;48.790;8.990;2023-11-19T16:22:20;2.43;;;1.30;;